createdAt,value
2019-04-01T00:02:05.198Z,47.79
2019-04-01T00:04:51.396Z,47.73
2019-04-01T00:07:37.275Z,47.48
2019-04-01T00:10:23.505Z,47.68
2019-04-01T00:13:09.704Z,47.89
2019-04-01T00:15:55.828Z,47.28
2019-04-01T00:18:42.169Z,47.72
2019-04-01T00:21:28.091Z,47.24
2019-04-01T00:24:14.112Z,47.26
2019-04-01T00:27:00.076Z,47.52
2019-04-01T00:29:45.904Z,47.50
2019-04-01T00:32:32.128Z,47.92
2019-04-01T00:35:18.022Z,47.36
2019-04-01T00:38:03.933Z,47.33
2019-04-01T00:40:50.033Z,47.52
2019-04-01T00:44:01.151Z,47.29
2019-04-01T00:46:47.631Z,47.47
2019-04-01T00:49:33.958Z,47.65
2019-04-01T00:52:19.923Z,48.09
2019-04-01T00:55:05.866Z,48.11
2019-04-01T00:57:51.778Z,48.06
2019-04-01T01:00:37.871Z,47.94
2019-04-01T01:03:24.089Z,47.91
2019-04-01T01:06:10.007Z,48.02
2019-04-01T01:08:55.877Z,48.32
2019-04-01T01:11:41.818Z,48.34
2019-04-01T01:14:30.368Z,48.41
2019-04-01T01:17:16.760Z,48.48
2019-04-01T01:20:02.656Z,48.65
2019-04-01T01:22:48.955Z,48.51
2019-04-01T01:25:34.807Z,48.78
2019-04-01T01:28:20.628Z,48.61
2019-04-01T01:31:06.858Z,48.80
2019-04-01T01:33:53.036Z,48.48
2019-04-01T01:36:39.313Z,48.94
2019-04-01T01:39:25.880Z,48.69
2019-04-01T01:42:12.140Z,48.99
2019-04-01T01:44:58.203Z,48.97
2019-04-01T01:47:44.773Z,49.00
2019-04-01T01:50:31.132Z,49.17
2019-04-01T01:53:17.236Z,49.10
2019-04-01T01:56:03.065Z,49.23
2019-04-01T01:58:50.097Z,49.25
2019-04-01T02:01:36.088Z,49.19
2019-04-01T02:04:22.287Z,49.29
2019-04-01T02:07:08.436Z,49.22
2019-04-01T02:09:56.759Z,49.46
2019-04-01T02:12:43.037Z,49.50
2019-04-01T02:15:29.266Z,49.65
2019-04-01T02:18:17.702Z,49.74
2019-04-01T02:21:03.506Z,49.73
2019-04-01T02:23:49.500Z,49.73
2019-04-01T02:26:38.553Z,49.83
2019-04-01T02:29:24.715Z,49.88
2019-04-01T02:32:10.678Z,49.67
2019-04-01T02:34:56.656Z,50.20
2019-04-01T02:37:43.256Z,50.11
2019-04-01T02:40:29.449Z,50.35
2019-04-01T02:43:15.399Z,50.15
2019-04-01T02:46:01.377Z,50.15
2019-04-01T02:48:49.689Z,50.40
2019-04-01T02:51:35.819Z,50.33
2019-04-01T02:54:22.021Z,50.47
2019-04-01T02:57:07.907Z,50.50
2019-04-01T02:59:56.908Z,50.35
2019-04-01T03:02:42.872Z,50.67
2019-04-01T03:05:29.195Z,50.61
2019-04-01T03:08:18.541Z,50.80
2019-04-01T03:11:09.824Z,50.66
2019-04-01T03:13:53.538Z,51.20
2019-04-01T03:16:39.484Z,50.91
2019-04-01T03:19:26.344Z,50.88
2019-04-01T03:22:12.387Z,51.05
2019-04-01T03:24:58.456Z,50.85
2019-04-01T03:27:44.571Z,51.42
2019-04-01T03:30:33.661Z,51.10
2019-04-01T03:33:19.983Z,51.18
2019-04-01T03:36:07.724Z,51.25
2019-04-01T03:38:54.175Z,51.17
2019-04-01T03:41:40.145Z,51.20
2019-04-01T03:44:26.128Z,51.12
2019-04-01T03:47:12.426Z,51.28
2019-04-01T03:49:58.652Z,51.15
2019-04-01T03:52:44.646Z,51.30
2019-04-01T03:55:30.815Z,51.30
2019-04-01T03:58:16.963Z,51.58
2019-04-01T04:01:03.463Z,51.48
2019-04-01T04:03:49.749Z,51.62
2019-04-01T04:06:38.834Z,51.91
2019-04-01T04:09:24.976Z,51.90
2019-04-01T04:12:11.111Z,51.87
2019-04-01T04:14:57.028Z,51.99
2019-04-01T04:17:43.870Z,52.15
2019-04-01T04:20:29.792Z,51.93
2019-04-01T04:23:15.765Z,52.03
2019-04-01T04:26:01.766Z,52.03
2019-04-01T04:28:47.735Z,52.14
2019-04-01T04:31:36.692Z,52.18
2019-04-01T04:34:22.813Z,52.58
2019-04-01T04:37:09.098Z,52.43
2019-04-01T04:39:56.303Z,52.53
2019-04-01T04:42:42.608Z,52.43
2019-04-01T04:45:28.743Z,52.56
2019-04-01T04:48:14.765Z,52.75
2019-04-01T04:51:00.666Z,52.80
2019-04-01T04:53:46.676Z,52.80
2019-04-01T04:56:32.886Z,52.63
2019-04-01T04:59:18.943Z,52.73
2019-04-01T05:02:05.268Z,52.94
2019-04-01T05:04:52.177Z,52.93
2019-04-01T05:07:38.325Z,53.02
2019-04-01T05:10:25.178Z,53.20
2019-04-01T05:13:10.873Z,53.15
2019-04-01T05:15:56.974Z,52.83
2019-04-01T05:18:43.138Z,53.45
2019-04-01T05:21:29.101Z,53.37
2019-04-01T05:24:14.996Z,53.60
2019-04-01T05:27:01.434Z,53.54
2019-04-01T05:29:47.537Z,53.74
2019-04-01T05:32:33.494Z,53.67
2019-04-01T05:35:19.725Z,53.93
2019-04-01T05:38:07.918Z,53.90
2019-04-01T05:40:54.040Z,53.92
2019-04-01T05:43:40.090Z,53.86
2019-04-01T05:46:26.005Z,53.91
2019-04-01T05:49:11.969Z,53.70
2019-04-01T05:51:58.486Z,54.10
2019-04-01T05:54:44.709Z,53.86
2019-04-01T05:57:32.980Z,54.00
2019-04-01T06:00:24.914Z,53.87
2019-04-01T06:03:11.139Z,53.70
2019-04-01T06:05:57.077Z,53.64
2019-04-01T06:08:43.016Z,53.56
2019-04-01T06:11:29.416Z,53.36
2019-04-01T06:14:15.639Z,53.36
2019-04-01T06:17:01.809Z,53.31
2019-04-01T06:19:47.768Z,53.23
2019-04-01T06:22:33.738Z,53.42
2019-04-01T06:25:20.032Z,53.33
2019-04-01T06:28:06.386Z,53.22
2019-04-01T06:30:52.389Z,53.11
2019-04-01T06:33:41.042Z,53.08
2019-04-01T06:36:26.997Z,53.15
2019-04-01T06:39:13.334Z,52.86
2019-04-01T06:41:59.783Z,53.12
2019-04-01T06:44:46.111Z,52.86
2019-04-01T06:47:32.329Z,52.75
2019-04-01T06:50:18.289Z,52.96
2019-04-01T06:53:05.037Z,52.57
2019-04-01T06:55:51.058Z,52.34
2019-04-01T06:58:37.316Z,52.43
2019-04-01T07:01:23.251Z,52.20
2019-04-01T07:04:09.330Z,52.12
2019-04-01T07:06:55.285Z,52.24
2019-04-01T07:09:41.575Z,52.10
2019-04-01T07:12:27.551Z,51.52
2019-04-01T07:15:13.797Z,51.42
2019-04-01T07:17:59.742Z,51.13
2019-04-01T07:20:45.978Z,51.24
2019-04-01T07:23:31.789Z,51.17
2019-04-01T07:26:17.756Z,51.30
2019-04-01T07:29:03.809Z,50.89
2019-04-01T07:31:49.745Z,50.69
2019-04-01T07:34:35.896Z,50.98
2019-04-01T07:37:22.159Z,50.71
2019-04-01T07:40:08.155Z,50.49
2019-04-01T07:42:54.840Z,50.54
2019-04-01T07:45:41.265Z,50.40
2019-04-01T07:48:27.503Z,49.83
2019-04-01T07:51:13.551Z,49.87
2019-04-01T07:53:59.775Z,49.70
2019-04-01T07:56:48.715Z,49.51
2019-04-01T07:59:34.722Z,49.20
2019-04-01T08:02:20.609Z,48.80
2019-04-01T08:05:06.545Z,48.58
2019-04-01T08:07:52.802Z,48.45
2019-04-01T08:10:38.737Z,48.36
2019-04-01T08:13:24.764Z,48.05
2019-04-01T08:16:13.754Z,47.38
2019-04-01T08:18:59.772Z,47.23
2019-04-01T08:21:45.734Z,47.01
2019-04-01T08:24:31.745Z,46.72
2019-04-01T08:27:17.866Z,46.42
2019-04-01T08:30:04.305Z,46.30
2019-04-01T08:32:50.275Z,45.85
2019-04-01T08:35:36.161Z,45.68
2019-04-01T08:38:22.139Z,45.36
2019-04-01T08:41:08.069Z,45.12
2019-04-01T08:43:54.370Z,45.52
2019-04-01T08:46:40.600Z,45.00
2019-04-01T08:49:26.556Z,44.59
2019-04-01T08:52:12.654Z,44.57
2019-04-01T08:54:58.660Z,44.31
2019-04-01T08:57:44.686Z,44.43
2019-04-01T09:00:33.567Z,44.25
2019-04-01T09:03:19.562Z,43.94
2019-04-01T09:06:07.911Z,43.55
2019-04-01T09:08:54.392Z,43.75
2019-04-01T09:11:40.735Z,43.61
2019-04-01T09:14:26.997Z,43.13
2019-04-01T09:17:13.071Z,42.89
2019-04-01T09:19:59.254Z,43.12
2019-04-01T09:22:45.171Z,43.04
2019-04-01T09:25:34.051Z,42.44
2019-04-01T09:28:20.418Z,42.47
2019-04-01T09:31:06.639Z,42.41
2019-04-01T09:33:53.099Z,42.15
2019-04-01T09:36:39.007Z,41.80
2019-04-01T09:39:28.079Z,41.75
2019-04-01T09:42:13.966Z,41.76
2019-04-01T09:45:00.379Z,41.62
2019-04-01T09:47:46.935Z,41.80
2019-04-01T09:50:32.964Z,41.66
2019-04-01T09:53:19.207Z,40.93
2019-04-01T09:56:05.307Z,41.33
2019-04-01T09:58:51.358Z,41.16
2019-04-01T10:01:37.616Z,41.21
2019-04-01T10:04:23.906Z,40.50
2019-04-01T10:07:09.869Z,40.83
2019-04-01T10:09:56.176Z,40.73
2019-04-01T10:12:45.003Z,41.03
2019-04-01T10:15:31.377Z,40.53
2019-04-01T10:18:17.303Z,40.63
2019-04-01T10:21:03.328Z,40.23
2019-04-01T10:23:49.283Z,39.85
2019-04-01T10:26:35.265Z,39.96
2019-04-01T10:29:21.679Z,39.73
2019-04-01T10:32:10.207Z,39.44
2019-04-01T10:34:56.382Z,39.46
2019-04-01T10:37:44.752Z,39.48
2019-04-01T10:40:30.844Z,39.33
2019-04-01T10:43:16.929Z,39.58
2019-04-01T10:46:03.422Z,39.14
2019-04-01T10:48:49.731Z,38.95
2019-04-01T10:51:35.899Z,38.71
2019-04-01T10:54:22.152Z,39.04
2019-04-01T10:57:08.543Z,38.78
2019-04-01T10:59:54.515Z,38.69
2019-04-01T11:02:40.782Z,40.01
2019-04-01T11:05:29.614Z,38.94
2019-04-01T11:08:33.917Z,39.62
2019-04-01T11:11:19.828Z,38.52
2019-04-01T11:14:05.829Z,37.88
2019-04-01T11:16:52.090Z,38.23
2019-04-01T11:19:39.457Z,37.97
2019-04-01T11:22:25.868Z,37.60
2019-04-01T11:25:12.200Z,37.01
2019-04-01T11:27:58.145Z,37.52
2019-04-01T11:30:44.189Z,37.46
2019-04-01T11:33:30.324Z,37.18
2019-04-01T11:36:16.738Z,36.91
2019-04-01T11:39:02.704Z,37.07
2019-04-01T11:41:49.096Z,36.39
2019-04-01T11:44:35.769Z,36.80
2019-04-01T11:47:22.182Z,36.56
2019-04-01T11:50:08.695Z,36.80
2019-04-01T11:52:54.821Z,36.16
2019-04-01T11:55:41.536Z,35.99
2019-04-01T11:58:27.983Z,36.11
2019-04-01T12:01:14.875Z,36.55
2019-04-01T12:04:03.318Z,37.02
2019-04-01T12:06:49.627Z,35.98
2019-04-01T12:09:36.189Z,35.85
2019-04-01T12:12:24.396Z,35.91
2019-04-01T12:15:12.466Z,34.90
2019-04-01T12:17:58.952Z,32.28
2019-04-01T12:20:44.875Z,31.30
2019-04-01T12:23:30.870Z,30.69
2019-04-01T12:26:20.660Z,30.26
2019-04-01T12:29:06.913Z,29.92
2019-04-01T12:31:52.940Z,29.17
2019-04-01T12:34:42.125Z,29.17
2019-04-01T12:37:30.070Z,28.69
2019-04-01T12:40:15.765Z,28.72
2019-04-01T12:43:02.730Z,28.90
2019-04-01T12:45:48.786Z,28.15
2019-04-01T12:48:34.661Z,27.42
2019-04-01T12:51:21.778Z,27.02
2019-04-01T12:54:08.205Z,27.27
2019-04-01T12:56:54.359Z,27.19
2019-04-01T12:59:41.117Z,26.71
2019-04-01T13:02:27.378Z,26.57
2019-04-01T13:05:13.676Z,26.06
2019-04-01T13:07:59.897Z,26.04
2019-04-01T13:10:45.939Z,26.32
2019-04-01T13:13:31.911Z,26.51
2019-04-01T13:16:17.960Z,26.11
2019-04-01T13:19:03.868Z,25.66
2019-04-01T13:21:49.730Z,24.87
2019-04-01T13:24:36.060Z,26.11
2019-04-01T13:27:21.998Z,25.53
2019-04-01T13:30:11.474Z,25.12
2019-04-01T13:32:57.671Z,25.37
2019-04-01T13:35:43.692Z,25.96
2019-04-01T13:38:29.815Z,25.69
2019-04-01T13:41:18.974Z,25.63
2019-04-01T13:44:08.557Z,25.41
2019-04-01T13:46:56.320Z,25.30
2019-04-01T13:49:42.359Z,25.18
2019-04-01T13:52:28.996Z,24.93
2019-04-01T13:55:14.975Z,24.42
2019-04-01T13:58:01.012Z,24.39
2019-04-01T14:00:47.160Z,24.13
2019-04-01T14:03:34.225Z,24.07
2019-04-01T14:06:20.101Z,24.04
2019-04-01T14:09:06.517Z,24.08
2019-04-01T14:11:52.699Z,23.91
2019-04-01T14:14:39.208Z,23.63
2019-04-01T14:17:25.367Z,24.00
2019-04-01T14:20:11.396Z,23.89
2019-04-01T14:22:57.783Z,24.46
2019-04-01T14:25:43.637Z,24.08
2019-04-01T14:28:29.507Z,24.00
2019-04-01T14:31:19.035Z,23.87
2019-04-01T14:34:06.141Z,23.86
2019-04-01T14:36:51.035Z,23.60
2019-04-01T14:39:37.061Z,23.54
2019-04-01T14:42:23.008Z,24.12
2019-04-01T14:45:09.066Z,24.41
2019-04-01T14:47:57.449Z,23.89
2019-04-01T14:50:43.269Z,24.12
2019-04-01T14:53:29.378Z,24.32
2019-04-01T14:56:16.697Z,24.60
2019-04-01T14:59:02.997Z,25.39
2019-04-01T15:01:49.285Z,25.81
2019-04-01T15:04:35.373Z,26.79
2019-04-01T15:07:21.740Z,27.25
2019-04-01T15:10:07.971Z,27.31
2019-04-01T15:13:04.949Z,28.52
2019-04-01T15:15:41.605Z,28.21
2019-04-01T15:18:27.583Z,27.83
2019-04-01T15:21:13.972Z,28.70
2019-04-01T15:24:00.595Z,28.74
2019-04-01T15:26:46.592Z,28.95
2019-04-01T15:29:32.693Z,29.00
2019-04-01T15:32:18.639Z,29.30
2019-04-01T15:35:05.165Z,29.58
2019-04-01T15:37:52.148Z,29.80
2019-04-01T15:40:39.111Z,29.82
2019-04-01T15:43:25.480Z,30.05
2019-04-01T15:46:11.901Z,30.11
2019-04-01T15:48:58.358Z,30.66
2019-04-01T15:51:44.459Z,30.62
2019-04-01T15:54:30.567Z,30.60
2019-04-01T15:57:16.893Z,30.50
2019-04-01T16:00:03.455Z,30.80
2019-04-01T16:02:49.732Z,30.74
2019-04-01T16:05:35.953Z,31.33
2019-04-01T16:08:22.432Z,31.55
2019-04-01T16:11:08.763Z,31.63
2019-04-01T16:13:54.866Z,31.70
2019-04-01T16:16:40.898Z,31.85
2019-04-01T16:19:27.046Z,31.88
2019-04-01T16:22:13.118Z,32.35
2019-04-01T16:24:59.212Z,31.96
2019-04-01T16:27:45.200Z,31.89
2019-04-01T16:30:31.375Z,32.01
2019-04-01T16:33:17.253Z,32.14
2019-04-01T16:36:03.526Z,32.35
2019-04-01T16:38:49.599Z,32.13
2019-04-01T16:41:35.936Z,32.42
2019-04-01T16:44:21.908Z,32.68
2019-04-01T16:47:10.173Z,32.81
2019-04-01T16:49:56.227Z,32.95
2019-04-01T16:52:42.475Z,32.92
2019-04-01T16:55:28.629Z,33.07
2019-04-01T16:58:14.562Z,33.45
2019-04-01T17:01:02.538Z,33.27
2019-04-01T17:03:49.183Z,33.45
2019-04-01T17:06:35.341Z,33.54
2019-04-01T17:09:21.559Z,33.77
2019-04-01T17:12:10.327Z,33.72
2019-04-01T17:14:55.203Z,33.66
2019-04-01T17:17:42.316Z,33.97
2019-04-01T17:20:28.641Z,33.80
2019-04-01T17:23:14.708Z,33.82
2019-04-01T17:26:01.101Z,34.29
2019-04-01T17:28:47.351Z,34.34
2019-04-01T17:31:33.292Z,34.38
2019-04-01T17:34:19.680Z,34.21
2019-04-01T17:37:05.663Z,34.52
2019-04-01T17:39:51.669Z,34.57
2019-04-01T17:42:39.352Z,34.74
2019-04-01T17:45:27.489Z,34.95
2019-04-01T17:48:13.848Z,34.55
2019-04-01T17:50:59.735Z,34.78
2019-04-01T17:53:45.986Z,34.98
2019-04-01T17:56:34.518Z,35.27
2019-04-01T17:59:20.855Z,35.24
2019-04-01T18:02:07.342Z,35.19
2019-04-01T18:04:53.495Z,35.38
2019-04-01T18:07:39.610Z,35.64
2019-04-01T18:10:25.767Z,35.78
2019-04-01T18:13:11.662Z,35.72
2019-04-01T18:15:57.830Z,35.92
2019-04-01T18:18:44.807Z,36.37
2019-04-01T18:21:31.964Z,36.25
2019-04-01T18:24:19.274Z,36.08
2019-04-01T18:27:05.587Z,36.41
2019-04-01T18:29:51.730Z,36.38
2019-04-01T18:32:38.107Z,36.52
2019-04-01T18:35:25.252Z,36.77
2019-04-01T18:38:12.077Z,36.79
2019-04-01T18:40:58.492Z,36.81
2019-04-01T18:43:44.457Z,36.97
2019-04-01T18:46:30.486Z,37.10
2019-04-01T18:49:17.599Z,37.06
2019-04-01T18:52:03.803Z,37.12
2019-04-01T18:54:50.155Z,37.77
2019-04-01T18:57:36.311Z,37.56
2019-04-01T19:00:22.813Z,37.68
2019-04-01T19:03:10.446Z,37.69
2019-04-01T19:05:56.723Z,38.10
2019-04-01T19:08:42.709Z,37.83
2019-04-01T19:11:31.020Z,38.03
2019-04-01T19:14:17.132Z,38.08
2019-04-01T19:17:03.455Z,38.03
2019-04-01T19:19:49.432Z,38.34
2019-04-01T19:22:35.394Z,38.10
2019-04-01T19:25:25.742Z,38.27
2019-04-01T19:28:12.269Z,38.43
2019-04-01T19:30:58.693Z,38.51
2019-04-01T19:33:44.589Z,38.88
2019-04-01T19:36:30.768Z,39.01
2019-04-01T19:39:16.922Z,38.95
2019-04-01T19:42:02.899Z,39.00
2019-04-01T19:44:49.036Z,39.43
2019-04-01T19:47:35.472Z,39.18
2019-04-01T19:50:22.004Z,39.38
2019-04-01T19:53:08.374Z,39.84
2019-04-01T19:55:54.336Z,39.60
2019-04-01T19:58:40.231Z,39.70
2019-04-01T20:01:26.451Z,39.62
2019-04-01T20:04:12.701Z,39.85
2019-04-01T20:06:58.683Z,39.91
2019-04-01T20:09:46.281Z,40.15
2019-04-01T20:12:32.652Z,40.34
2019-04-01T20:15:18.602Z,40.28
2019-04-01T20:18:04.597Z,40.69
2019-04-01T20:20:50.568Z,40.72
2019-04-01T20:23:36.791Z,40.90
2019-04-01T20:26:22.950Z,41.09
2019-04-01T20:29:11.048Z,41.16
2019-04-01T20:31:56.934Z,41.34
2019-04-01T20:34:56.096Z,41.42
2019-04-01T20:37:31.213Z,41.53
2019-04-01T20:40:17.591Z,41.71
2019-04-01T20:43:03.580Z,41.89
2019-04-01T20:45:51.867Z,41.94
2019-04-01T20:48:37.873Z,42.08
2019-04-01T20:51:26.979Z,42.12
2019-04-01T20:54:12.965Z,42.05
2019-04-01T20:56:59.155Z,42.14
2019-04-01T20:59:47.343Z,42.40
2019-04-01T21:02:34.845Z,42.36
2019-04-01T21:05:24.249Z,42.80
2019-04-01T21:08:12.689Z,42.58
2019-04-01T21:10:59.008Z,42.46
2019-04-01T21:13:45.285Z,42.41
2019-04-01T21:16:31.281Z,42.40
2019-04-01T21:19:18.013Z,42.61
2019-04-01T21:22:04.185Z,42.62
2019-04-01T21:24:51.001Z,42.81
2019-04-01T21:27:37.333Z,42.66
2019-04-01T21:30:23.295Z,42.62
2019-04-01T21:33:13.163Z,42.61
2019-04-01T21:36:00.197Z,42.94
2019-04-01T21:38:46.456Z,42.91
2019-04-01T21:41:35.797Z,43.01
2019-04-01T21:44:21.465Z,43.03
2019-04-01T21:47:07.425Z,43.11
2019-04-01T21:49:53.505Z,43.08
2019-04-01T21:52:39.465Z,43.29
2019-04-01T21:55:25.776Z,43.47
2019-04-01T21:58:11.855Z,43.69
2019-04-01T22:00:58.886Z,43.80
2019-04-01T22:03:45.192Z,43.93
2019-04-01T22:06:31.150Z,44.03
2019-04-01T22:09:17.421Z,44.23
2019-04-01T22:12:03.515Z,44.39
2019-04-01T22:14:49.457Z,44.32
2019-04-01T22:17:35.508Z,44.40
2019-04-01T22:20:21.754Z,44.54
2019-04-01T22:23:07.952Z,44.56
2019-04-01T22:25:54.458Z,44.40
2019-04-01T22:28:40.592Z,44.44
2019-04-01T22:31:26.611Z,44.20
2019-04-01T22:34:12.525Z,44.39
2019-04-01T22:36:58.520Z,44.50
2019-04-01T22:39:45.538Z,44.46
2019-04-01T22:42:34.337Z,44.44
2019-04-01T22:45:20.653Z,44.67
2019-04-01T22:48:07.239Z,44.67
2019-04-01T22:50:53.166Z,44.81
2019-04-01T22:53:39.320Z,44.78
2019-04-01T22:56:27.029Z,44.79
2019-04-01T22:59:13.296Z,44.81
2019-04-01T23:01:59.635Z,44.76
2019-04-01T23:04:45.893Z,44.66
2019-04-01T23:07:33.022Z,44.71
2019-04-01T23:10:19.326Z,44.68
2019-04-01T23:13:05.656Z,44.78
2019-04-01T23:15:51.794Z,44.87
2019-04-01T23:18:40.828Z,44.93
2019-04-01T23:21:26.952Z,44.93
2019-04-01T23:24:12.943Z,45.11
2019-04-01T23:26:59.218Z,45.06
2019-04-01T23:29:45.172Z,45.04
2019-04-01T23:32:31.156Z,45.18
2019-04-01T23:35:17.352Z,45.37
2019-04-01T23:38:03.424Z,45.36
2019-04-01T23:40:49.796Z,45.38
2019-04-01T23:43:35.732Z,45.49
2019-04-01T23:46:21.961Z,45.61
2019-04-01T23:49:07.813Z,45.72
2019-04-01T23:51:54.124Z,45.86
2019-04-01T23:54:40.035Z,45.92
2019-04-01T23:57:25.969Z,45.99
